sensor_id;sensor_type;location;lat;lon;timestamp;temperature;humidity
13174;DHT22;6652;48.802;9.190;2023-08-06T00:00:22;16.80;99.90
13174;DHT22;6652;48.802;9.190;2023-08-06T00:02:49;16.80;99.90
13174;DHT22;6652;48.802;9.190;2023-08-06T00:05:16;16.90;99.90
13174;DHT22;6652;48.802;9.190;2023-08-06T00:07:46;16.80;99.90
13174;DHT22;6652;48.802;9.190;2023-08-06T00:10:13;16.80;99.90
13174;DHT22;6652;48.802;9.190;2023-08-06T00:12:40;16.70;99.90
13174;DHT22;6652;48.802;9.190;2023-08-06T00:15:09;16.70;99.90
13174;DHT22;6652;48.802;9.190;2023-08-06T00:17:36;16.60;99.90
13174;DHT22;6652;48.802;9.190;2023-08-06T00:20:04;16.60;99.90
13174;DHT22;6652;48.802;9.190;2023-08-06T00:22:32;16.50;99.90
13174;DHT22;6652;48.802;9.190;2023-08-06T00:24:58;16.50;99.90
13174;DHT22;6652;48.802;9.190;2023-08-06T00:27:25;16.40;99.90
13174;DHT22;6652;48.802;9.190;2023-08-06T00:29:52;16.30;99.90
13174;DHT22;6652;48.802;9.190;2023-08-06T00:32:21;16.30;99.90
13174;DHT22;6652;48.802;9.190;2023-08-06T00:34:48;16.20;99.90
13174;DHT22;6652;48.802;9.190;2023-08-06T00:37:15;16.10;99.90
13174;DHT22;6652;48.802;9.190;2023-08-06T00:39:43;16.10;99.90
13174;DHT22;6652;48.802;9.190;2023-08-06T00:42:10;16.00;99.90
13174;DHT22;6652;48.802;9.190;2023-08-06T00:44:37;16.00;99.90
13174;DHT22;6652;48.802;9.190;2023-08-06T00:47:06;15.90;99.90
13174;DHT22;6652;48.802;9.190;2023-08-06T00:49:34;15.70;99.90
13174;DHT22;6652;48.802;9.190;2023-08-06T00:52:03;15.80;99.90
13174;DHT22;6652;48.802;9.190;2023-08-06T00:54:30;15.70;99.90
13174;DHT22;6652;48.802;9.190;2023-08-06T00:56:59;15.70;99.90
13174;DHT22;6652;48.802;9.190;2023-08-06T00:59:27;15.70;99.90
13174;DHT22;6652;48.802;9.190;2023-08-06T01:01:54;15.80;99.90
13174;DHT22;6652;48.802;9.190;2023-08-06T01:04:22;15.60;99.90
13174;DHT22;6652;48.802;9.190;2023-08-06T01:07:07;15.60;99.90
13174;DHT22;6652;48.802;9.190;2023-08-06T01:09:43;15.50;99.90
13174;DHT22;6652;48.802;9.190;2023-08-06T01:12:21;15.40;99.90
13174;DHT22;6652;48.802;9.190;2023-08-06T01:14:58;15.40;99.90
13174;DHT22;6652;48.802;9.190;2023-08-06T01:17:28;15.30;99.90
13174;DHT22;6652;48.802;9.190;2023-08-06T01:19:56;15.30;99.90
13174;DHT22;6652;48.802;9.190;2023-08-06T01:22:24;15.30;99.90
13174;DHT22;6652;48.802;9.190;2023-08-06T01:24:52;15.30;99.90
13174;DHT22;6652;48.802;9.190;2023-08-06T01:27:25;15.30;99.90
13174;DHT22;6652;48.802;9.190;2023-08-06T01:29:58;15.30;99.90
13174;DHT22;6652;48.802;9.190;2023-08-06T01:32:29;15.40;99.90
13174;DHT22;6652;48.802;9.190;2023-08-06T01:35:00;15.40;99.90
13174;DHT22;6652;48.802;9.190;2023-08-06T01:37:28;15.50;99.90
13174;DHT22;6652;48.802;9.190;2023-08-06T01:39:55;15.50;99.90
13174;DHT22;6652;48.802;9.190;2023-08-06T01:42:22;15.60;99.90
13174;DHT22;6652;48.802;9.190;2023-08-06T01:44:48;15.60;99.90
13174;DHT22;6652;48.802;9.190;2023-08-06T01:47:15;15.60;99.90
13174;DHT22;6652;48.802;9.190;2023-08-06T01:49:42;16.00;99.90
13174;DHT22;6652;48.802;9.190;2023-08-06T01:52:09;15.60;99.90
13174;DHT22;6652;48.802;9.190;2023-08-06T01:54:37;15.60;99.90
13174;DHT22;6652;48.802;9.190;2023-08-06T01:57:04;15.60;99.90
13174;DHT22;6652;48.802;9.190;2023-08-06T01:59:31;15.60;99.90
13174;DHT22;6652;48.802;9.190;2023-08-06T02:01:58;15.60;99.90
13174;DHT22;6652;48.802;9.190;2023-08-06T02:04:24;15.60;99.90
13174;DHT22;6652;48.802;9.190;2023-08-06T02:06:51;15.50;99.90
13174;DHT22;6652;48.802;9.190;2023-08-06T02:09:18;15.50;99.90
13174;DHT22;6652;48.802;9.190;2023-08-06T02:11:46;15.40;99.90
13174;DHT22;6652;48.802;9.190;2023-08-06T02:14:13;15.40;99.90
13174;DHT22;6652;48.802;9.190;2023-08-06T02:16:40;15.30;99.90
13174;DHT22;6652;48.802;9.190;2023-08-06T02:19:06;15.30;99.90
13174;DHT22;6652;48.802;9.190;2023-08-06T02:21:33;15.60;99.90
13174;DHT22;6652;48.802;9.190;2023-08-06T02:24:00;15.20;99.90
13174;DHT22;6652;48.802;9.190;2023-08-06T02:26:27;15.10;99.90
13174;DHT22;6652;48.802;9.190;2023-08-06T02:28:55;15.10;99.90
13174;DHT22;6652;48.802;9.190;2023-08-06T02:31:22;15.00;99.90
13174;DHT22;6652;48.802;9.190;2023-08-06T02:33:48;15.00;99.90
13174;DHT22;6652;48.802;9.190;2023-08-06T02:36:15;15.00;99.90
13174;DHT22;6652;48.802;9.190;2023-08-06T02:38:42;15.40;99.90
13174;DHT22;6652;48.802;9.190;2023-08-06T02:41:09;14.80;99.90
13174;DHT22;6652;48.802;9.190;2023-08-06T02:43:36;14.80;99.90
13174;DHT22;6652;48.802;9.190;2023-08-06T02:46:04;14.70;99.90
13174;DHT22;6652;48.802;9.190;2023-08-06T02:48:30;14.70;99.90
13174;DHT22;6652;48.802;9.190;2023-08-06T02:50:57;15.40;99.90
13174;DHT22;6652;48.802;9.190;2023-08-06T02:53:25;14.70;99.90
13174;DHT22;6652;48.802;9.190;2023-08-06T02:55:52;14.60;99.90
13174;DHT22;6652;48.802;9.190;2023-08-06T02:58:20;14.60;99.90
13174;DHT22;6652;48.802;9.190;2023-08-06T03:00:59;14.50;99.90
13174;DHT22;6652;48.802;9.190;2023-08-06T03:03:27;14.50;99.90
13174;DHT22;6652;48.802;9.190;2023-08-06T03:05:54;14.50;99.90
13174;DHT22;6652;48.802;9.190;2023-08-06T03:08:21;15.40;99.90
13174;DHT22;6652;48.802;9.190;2023-08-06T03:10:48;14.50;99.90
13174;DHT22;6652;48.802;9.190;2023-08-06T03:13:15;14.60;99.90
13174;DHT22;6652;48.802;9.190;2023-08-06T03:15:42;14.50;99.90
13174;DHT22;6652;48.802;9.190;2023-08-06T03:18:08;14.50;99.90
13174;DHT22;6652;48.802;9.190;2023-08-06T03:20:37;14.50;99.90
13174;DHT22;6652;48.802;9.190;2023-08-06T03:23:03;14.70;99.90
13174;DHT22;6652;48.802;9.190;2023-08-06T03:25:30;14.60;99.90
13174;DHT22;6652;48.802;9.190;2023-08-06T03:27:57;14.70;99.90
13174;DHT22;6652;48.802;9.190;2023-08-06T03:30:24;15.60;99.90
13174;DHT22;6652;48.802;9.190;2023-08-06T03:32:50;14.80;99.90
13174;DHT22;6652;48.802;9.190;2023-08-06T03:35:17;14.80;99.90
13174;DHT22;6652;48.802;9.190;2023-08-06T03:37:45;14.90;99.90
13174;DHT22;6652;48.802;9.190;2023-08-06T03:40:12;14.90;99.90
13174;DHT22;6652;48.802;9.190;2023-08-06T03:42:39;14.90;99.90
13174;DHT22;6652;48.802;9.190;2023-08-06T03:45:06;15.00;99.90
13174;DHT22;6652;48.802;9.190;2023-08-06T03:47:34;15.00;99.90
13174;DHT22;6652;48.802;9.190;2023-08-06T03:50:01;15.00;99.90
13174;DHT22;6652;48.802;9.190;2023-08-06T03:52:27;15.00;99.90
13174;DHT22;6652;48.802;9.190;2023-08-06T03:54:55;15.00;99.90
13174;DHT22;6652;48.802;9.190;2023-08-06T03:57:22;15.00;99.90
13174;DHT22;6652;48.802;9.190;2023-08-06T03:59:49;15.20;99.90
13174;DHT22;6652;48.802;9.190;2023-08-06T04:02:16;15.50;99.90
13174;DHT22;6652;48.802;9.190;2023-08-06T04:04:43;15.10;99.90
13174;DHT22;6652;48.802;9.190;2023-08-06T04:07:09;15.10;99.90
13174;DHT22;6652;48.802;9.190;2023-08-06T04:09:53;15.10;99.90
13174;DHT22;6652;48.802;9.190;2023-08-06T04:12:22;15.10;99.90
13174;DHT22;6652;48.802;9.190;2023-08-06T04:14:50;15.20;99.90
13174;DHT22;6652;48.802;9.190;2023-08-06T04:17:18;15.20;99.90
13174;DHT22;6652;48.802;9.190;2023-08-06T04:19:47;15.20;99.90
13174;DHT22;6652;48.802;9.190;2023-08-06T04:22:14;15.10;99.90
13174;DHT22;6652;48.802;9.190;2023-08-06T04:24:41;15.10;99.90
13174;DHT22;6652;48.802;9.190;2023-08-06T04:27:08;15.10;99.90
13174;DHT22;6652;48.802;9.190;2023-08-06T04:29:37;15.50;99.90
13174;DHT22;6652;48.802;9.190;2023-08-06T04:32:05;15.10;99.90
13174;DHT22;6652;48.802;9.190;2023-08-06T04:34:32;15.10;99.90
13174;DHT22;6652;48.802;9.190;2023-08-06T04:36:59;15.10;99.90
13174;DHT22;6652;48.802;9.190;2023-08-06T04:39:26;15.30;99.90
13174;DHT22;6652;48.802;9.190;2023-08-06T04:41:53;15.20;99.90
13174;DHT22;6652;48.802;9.190;2023-08-06T04:44:20;15.20;99.90
13174;DHT22;6652;48.802;9.190;2023-08-06T04:46:49;15.20;99.90
13174;DHT22;6652;48.802;9.190;2023-08-06T04:49:15;15.20;99.90
13174;DHT22;6652;48.802;9.190;2023-08-06T04:51:42;15.10;99.90
13174;DHT22;6652;48.802;9.190;2023-08-06T04:54:09;15.20;99.90
13174;DHT22;6652;48.802;9.190;2023-08-06T04:56:36;16.30;99.90
13174;DHT22;6652;48.802;9.190;2023-08-06T04:59:03;15.50;99.90
13174;DHT22;6652;48.802;9.190;2023-08-06T05:01:30;15.60;99.90
13174;DHT22;6652;48.802;9.190;2023-08-06T05:03:58;15.30;99.90
13174;DHT22;6652;48.802;9.190;2023-08-06T05:06:25;15.30;99.90
13174;DHT22;6652;48.802;9.190;2023-08-06T05:08:51;15.30;99.90
13174;DHT22;6652;48.802;9.190;2023-08-06T05:11:18;15.40;99.90
13174;DHT22;6652;48.802;9.190;2023-08-06T05:13:45;15.40;99.90
13174;DHT22;6652;48.802;9.190;2023-08-06T05:16:12;15.50;99.90
13174;DHT22;6652;48.802;9.190;2023-08-06T05:18:38;15.50;99.90
13174;DHT22;6652;48.802;9.190;2023-08-06T05:21:07;15.50;99.90
13174;DHT22;6652;48.802;9.190;2023-08-06T05:23:34;15.50;99.90
13174;DHT22;6652;48.802;9.190;2023-08-06T05:26:01;15.40;99.90
13174;DHT22;6652;48.802;9.190;2023-08-06T05:28:27;15.40;99.90
13174;DHT22;6652;48.802;9.190;2023-08-06T05:30:54;15.50;99.90
13174;DHT22;6652;48.802;9.190;2023-08-06T05:33:21;15.60;99.90
13174;DHT22;6652;48.802;9.190;2023-08-06T05:35:49;16.20;99.90
13174;DHT22;6652;48.802;9.190;2023-08-06T05:38:17;15.90;99.90
13174;DHT22;6652;48.802;9.190;2023-08-06T05:40:44;16.20;99.90
13174;DHT22;6652;48.802;9.190;2023-08-06T05:43:11;17.20;99.90
13174;DHT22;6652;48.802;9.190;2023-08-06T05:45:38;18.00;99.90
13174;DHT22;6652;48.802;9.190;2023-08-06T05:48:04;18.60;99.90
13174;DHT22;6652;48.802;9.190;2023-08-06T05:50:31;18.70;99.90
13174;DHT22;6652;48.802;9.190;2023-08-06T05:52:58;18.70;99.90
13174;DHT22;6652;48.802;9.190;2023-08-06T05:55:26;18.50;99.90
13174;DHT22;6652;48.802;9.190;2023-08-06T05:57:53;18.80;99.90
13174;DHT22;6652;48.802;9.190;2023-08-06T06:00:20;17.90;99.90
13174;DHT22;6652;48.802;9.190;2023-08-06T06:02:47;17.70;99.90
13174;DHT22;6652;48.802;9.190;2023-08-06T06:05:14;17.50;99.90
13174;DHT22;6652;48.802;9.190;2023-08-06T06:07:41;17.30;99.90
13174;DHT22;6652;48.802;9.190;2023-08-06T06:10:08;17.20;99.90
13174;DHT22;6652;48.802;9.190;2023-08-06T06:12:38;17.10;99.90
13174;DHT22;6652;48.802;9.190;2023-08-06T06:15:06;17.00;99.90
13174;DHT22;6652;48.802;9.190;2023-08-06T06:17:32;17.00;99.90
13174;DHT22;6652;48.802;9.190;2023-08-06T06:19:59;16.90;99.90
13174;DHT22;6652;48.802;9.190;2023-08-06T06:22:26;16.90;99.90
13174;DHT22;6652;48.802;9.190;2023-08-06T06:24:53;16.80;99.90
13174;DHT22;6652;48.802;9.190;2023-08-06T06:27:19;16.80;99.90
13174;DHT22;6652;48.802;9.190;2023-08-06T06:29:48;16.70;99.90
13174;DHT22;6652;48.802;9.190;2023-08-06T06:32:14;16.60;99.90
13174;DHT22;6652;48.802;9.190;2023-08-06T06:34:41;16.50;99.90
13174;DHT22;6652;48.802;9.190;2023-08-06T06:37:08;16.50;99.90
13174;DHT22;6652;48.802;9.190;2023-08-06T06:39:35;16.40;99.90
13174;DHT22;6652;48.802;9.190;2023-08-06T06:42:01;16.50;99.90
13174;DHT22;6652;48.802;9.190;2023-08-06T06:44:28;16.50;99.90
13174;DHT22;6652;48.802;9.190;2023-08-06T06:46:56;16.50;99.90
13174;DHT22;6652;48.802;9.190;2023-08-06T06:49:23;16.60;99.90
13174;DHT22;6652;48.802;9.190;2023-08-06T06:51:51;16.90;99.90
13174;DHT22;6652;48.802;9.190;2023-08-06T06:54:17;17.80;99.90
13174;DHT22;6652;48.802;9.190;2023-08-06T06:56:44;17.10;99.90
13174;DHT22;6652;48.802;9.190;2023-08-06T06:59:11;17.20;99.90
13174;DHT22;6652;48.802;9.190;2023-08-06T07:01:38;17.30;99.90
13174;DHT22;6652;48.802;9.190;2023-08-06T07:04:06;17.30;99.90
13174;DHT22;6652;48.802;9.190;2023-08-06T07:06:33;17.30;99.90
13174;DHT22;6652;48.802;9.190;2023-08-06T07:08:59;17.20;99.90
13174;DHT22;6652;48.802;9.190;2023-08-06T07:11:26;17.20;99.90
13174;DHT22;6652;48.802;9.190;2023-08-06T07:13:56;16.40;99.90
13174;DHT22;6652;48.802;9.190;2023-08-06T07:16:24;16.90;99.90
13174;DHT22;6652;48.802;9.190;2023-08-06T07:18:51;16.80;99.90
13174;DHT22;6652;48.802;9.190;2023-08-06T07:21:20;16.70;99.90
13174;DHT22;6652;48.802;9.190;2023-08-06T07:23:47;16.70;99.90
13174;DHT22;6652;48.802;9.190;2023-08-06T07:26:15;16.70;99.90
13174;DHT22;6652;48.802;9.190;2023-08-06T07:28:42;17.30;99.90
13174;DHT22;6652;48.802;9.190;2023-08-06T07:31:09;16.50;99.90
13174;DHT22;6652;48.802;9.190;2023-08-06T07:33:37;16.50;99.90
13174;DHT22;6652;48.802;9.190;2023-08-06T07:36:11;16.40;99.90
13174;DHT22;6652;48.802;9.190;2023-08-06T07:38:39;16.30;99.90
13174;DHT22;6652;48.802;9.190;2023-08-06T07:41:07;16.20;99.90
13174;DHT22;6652;48.802;9.190;2023-08-06T07:43:34;16.30;99.90
13174;DHT22;6652;48.802;9.190;2023-08-06T07:46:01;16.30;99.90
13174;DHT22;6652;48.802;9.190;2023-08-06T07:48:28;16.60;99.90
13174;DHT22;6652;48.802;9.190;2023-08-06T07:50:55;16.50;99.90
13174;DHT22;6652;48.802;9.190;2023-08-06T07:53:23;16.60;99.90
13174;DHT22;6652;48.802;9.190;2023-08-06T07:55:54;16.60;99.90
13174;DHT22;6652;48.802;9.190;2023-08-06T07:58:22;16.70;99.90
13174;DHT22;6652;48.802;9.190;2023-08-06T08:00:49;17.00;99.90
13174;DHT22;6652;48.802;9.190;2023-08-06T08:03:17;17.30;99.90
13174;DHT22;6652;48.802;9.190;2023-08-06T08:05:45;17.60;99.90
13174;DHT22;6652;48.802;9.190;2023-08-06T08:08:12;17.80;99.90
13174;DHT22;6652;48.802;9.190;2023-08-06T08:10:39;18.40;99.90
13174;DHT22;6652;48.802;9.190;2023-08-06T08:13:07;18.10;99.90
13174;DHT22;6652;48.802;9.190;2023-08-06T08:15:34;18.20;99.90
13174;DHT22;6652;48.802;9.190;2023-08-06T08:18:01;18.50;99.90
13174;DHT22;6652;48.802;9.190;2023-08-06T08:20:28;18.80;99.90
13174;DHT22;6652;48.802;9.190;2023-08-06T08:22:58;19.10;99.90
13174;DHT22;6652;48.802;9.190;2023-08-06T08:25:26;19.50;99.90
13174;DHT22;6652;48.802;9.190;2023-08-06T08:27:53;19.90;99.90
13174;DHT22;6652;48.802;9.190;2023-08-06T08:30:21;20.20;99.90
13174;DHT22;6652;48.802;9.190;2023-08-06T08:32:50;20.80;99.90
13174;DHT22;6652;48.802;9.190;2023-08-06T08:35:17;21.00;99.90
13174;DHT22;6652;48.802;9.190;2023-08-06T08:37:44;21.20;99.90
13174;DHT22;6652;48.802;9.190;2023-08-06T08:40:11;21.20;99.90
13174;DHT22;6652;48.802;9.190;2023-08-06T08:42:38;21.00;99.90
13174;DHT22;6652;48.802;9.190;2023-08-06T08:45:10;21.00;99.90
13174;DHT22;6652;48.802;9.190;2023-08-06T08:47:40;21.10;99.90
13174;DHT22;6652;48.802;9.190;2023-08-06T08:50:08;20.70;99.90
13174;DHT22;6652;48.802;9.190;2023-08-06T08:52:36;20.80;99.90
13174;DHT22;6652;48.802;9.190;2023-08-06T08:55:05;20.70;99.90
13174;DHT22;6652;48.802;9.190;2023-08-06T08:57:36;20.50;99.90
13174;DHT22;6652;48.802;9.190;2023-08-06T09:00:03;20.20;99.90
13174;DHT22;6652;48.802;9.190;2023-08-06T09:02:32;19.80;99.90
13174;DHT22;6652;48.802;9.190;2023-08-06T09:05:03;19.60;99.90
13174;DHT22;6652;48.802;9.190;2023-08-06T09:07:34;19.70;99.90
13174;DHT22;6652;48.802;9.190;2023-08-06T09:10:02;19.50;99.90
13174;DHT22;6652;48.802;9.190;2023-08-06T09:12:30;19.30;99.90
13174;DHT22;6652;48.802;9.190;2023-08-06T09:14:57;19.20;99.90
13174;DHT22;6652;48.802;9.190;2023-08-06T09:17:24;19.10;99.90
13174;DHT22;6652;48.802;9.190;2023-08-06T09:19:53;19.20;99.90
13174;DHT22;6652;48.802;9.190;2023-08-06T09:22:21;19.20;99.90
13174;DHT22;6652;48.802;9.190;2023-08-06T09:24:48;19.60;99.90
13174;DHT22;6652;48.802;9.190;2023-08-06T09:27:15;19.50;99.90
13174;DHT22;6652;48.802;9.190;2023-08-06T09:29:42;19.60;99.90
13174;DHT22;6652;48.802;9.190;2023-08-06T09:32:10;19.60;99.90
13174;DHT22;6652;48.802;9.190;2023-08-06T09:34:39;19.60;99.90
13174;DHT22;6652;48.802;9.190;2023-08-06T09:37:08;19.60;99.90
13174;DHT22;6652;48.802;9.190;2023-08-06T09:39:39;19.70;99.90
13174;DHT22;6652;48.802;9.190;2023-08-06T09:42:05;20.10;99.90
13174;DHT22;6652;48.802;9.190;2023-08-06T09:44:34;19.40;99.90
13174;DHT22;6652;48.802;9.190;2023-08-06T09:47:02;19.20;99.90
13174;DHT22;6652;48.802;9.190;2023-08-06T09:49:40;19.00;99.90
13174;DHT22;6652;48.802;9.190;2023-08-06T09:52:10;18.90;99.90
13174;DHT22;6652;48.802;9.190;2023-08-06T09:54:39;18.90;99.90
13174;DHT22;6652;48.802;9.190;2023-08-06T09:57:06;19.00;99.90
13174;DHT22;6652;48.802;9.190;2023-08-06T09:59:33;19.00;99.90
13174;DHT22;6652;48.802;9.190;2023-08-06T10:02:01;19.00;99.90
13174;DHT22;6652;48.802;9.190;2023-08-06T10:04:29;19.00;99.90
13174;DHT22;6652;48.802;9.190;2023-08-06T10:06:56;19.00;99.90
13174;DHT22;6652;48.802;9.190;2023-08-06T10:09:24;18.90;99.90
13174;DHT22;6652;48.802;9.190;2023-08-06T10:11:52;19.10;99.90
13174;DHT22;6652;48.802;9.190;2023-08-06T10:14:24;19.20;99.90
13174;DHT22;6652;48.802;9.190;2023-08-06T10:16:51;19.10;99.90
13174;DHT22;6652;48.802;9.190;2023-08-06T10:19:19;19.10;99.90
13174;DHT22;6652;48.802;9.190;2023-08-06T10:22:08;19.20;99.90
13174;DHT22;6652;48.802;9.190;2023-08-06T10:24:48;19.30;99.90
13174;DHT22;6652;48.802;9.190;2023-08-06T10:27:22;19.20;99.90
13174;DHT22;6652;48.802;9.190;2023-08-06T10:29:49;19.10;99.90
13174;DHT22;6652;48.802;9.190;2023-08-06T10:32:16;19.10;99.90
13174;DHT22;6652;48.802;9.190;2023-08-06T10:34:55;19.30;99.90
13174;DHT22;6652;48.802;9.190;2023-08-06T10:37:23;19.60;99.90
13174;DHT22;6652;48.802;9.190;2023-08-06T10:39:50;19.60;99.90
13174;DHT22;6652;48.802;9.190;2023-08-06T10:42:28;19.80;99.90
13174;DHT22;6652;48.802;9.190;2023-08-06T10:45:12;20.10;99.90
13174;DHT22;6652;48.802;9.190;2023-08-06T10:47:39;20.40;99.90
13174;DHT22;6652;48.802;9.190;2023-08-06T10:50:07;20.40;99.90
13174;DHT22;6652;48.802;9.190;2023-08-06T10:52:34;20.30;99.90
13174;DHT22;6652;48.802;9.190;2023-08-06T10:55:01;20.20;99.90
13174;DHT22;6652;48.802;9.190;2023-08-06T10:57:29;20.20;99.90
13174;DHT22;6652;48.802;9.190;2023-08-06T10:59:56;20.00;99.90
13174;DHT22;6652;48.802;9.190;2023-08-06T11:02:23;19.60;99.90
13174;DHT22;6652;48.802;9.190;2023-08-06T11:04:50;19.40;99.90
13174;DHT22;6652;48.802;9.190;2023-08-06T11:07:17;19.40;99.90
13174;DHT22;6652;48.802;9.190;2023-08-06T11:09:44;19.20;99.90
13174;DHT22;6652;48.802;9.190;2023-08-06T11:12:11;18.90;99.90
13174;DHT22;6652;48.802;9.190;2023-08-06T11:14:39;18.70;99.90
13174;DHT22;6652;48.802;9.190;2023-08-06T11:17:06;18.50;99.90
13174;DHT22;6652;48.802;9.190;2023-08-06T11:19:33;18.40;99.90
13174;DHT22;6652;48.802;9.190;2023-08-06T11:22:03;18.50;99.90
13174;DHT22;6652;48.802;9.190;2023-08-06T11:24:31;18.60;99.90
13174;DHT22;6652;48.802;9.190;2023-08-06T11:26:58;18.70;99.90
13174;DHT22;6652;48.802;9.190;2023-08-06T11:29:25;18.50;99.90
13174;DHT22;6652;48.802;9.190;2023-08-06T11:31:53;18.40;99.90
13174;DHT22;6652;48.802;9.190;2023-08-06T11:34:29;18.80;99.90
13174;DHT22;6652;48.802;9.190;2023-08-06T11:36:57;18.60;99.90
13174;DHT22;6652;48.802;9.190;2023-08-06T11:39:24;18.60;99.90
13174;DHT22;6652;48.802;9.190;2023-08-06T11:41:51;18.60;99.90
13174;DHT22;6652;48.802;9.190;2023-08-06T11:44:22;18.50;99.90
13174;DHT22;6652;48.802;9.190;2023-08-06T11:47:02;18.60;99.90
13174;DHT22;6652;48.802;9.190;2023-08-06T11:49:47;18.80;99.90
13174;DHT22;6652;48.802;9.190;2023-08-06T11:52:19;18.90;99.90
13174;DHT22;6652;48.802;9.190;2023-08-06T11:55:00;18.90;99.90
13174;DHT22;6652;48.802;9.190;2023-08-06T11:57:42;18.80;99.90
13174;DHT22;6652;48.802;9.190;2023-08-06T12:00:11;18.60;99.90
13174;DHT22;6652;48.802;9.190;2023-08-06T12:02:41;18.50;99.90
13174;DHT22;6652;48.802;9.190;2023-08-06T12:05:12;18.30;99.90
13174;DHT22;6652;48.802;9.190;2023-08-06T12:07:41;18.00;99.90
13174;DHT22;6652;48.802;9.190;2023-08-06T12:10:12;17.80;99.90
13174;DHT22;6652;48.802;9.190;2023-08-06T12:12:40;17.60;99.90
13174;DHT22;6652;48.802;9.190;2023-08-06T12:15:14;17.50;99.90
13174;DHT22;6652;48.802;9.190;2023-08-06T12:17:43;17.30;99.90
13174;DHT22;6652;48.802;9.190;2023-08-06T12:20:13;17.20;99.90
13174;DHT22;6652;48.802;9.190;2023-08-06T12:22:42;17.20;99.90
13174;DHT22;6652;48.802;9.190;2023-08-06T12:25:14;17.20;99.90
13174;DHT22;6652;48.802;9.190;2023-08-06T12:27:43;17.30;99.90
13174;DHT22;6652;48.802;9.190;2023-08-06T12:30:12;17.30;99.90
13174;DHT22;6652;48.802;9.190;2023-08-06T12:32:39;17.50;99.90
13174;DHT22;6652;48.802;9.190;2023-08-06T12:35:09;17.60;99.90
13174;DHT22;6652;48.802;9.190;2023-08-06T12:37:39;17.80;99.90
13174;DHT22;6652;48.802;9.190;2023-08-06T12:40:12;18.00;99.90
13174;DHT22;6652;48.802;9.190;2023-08-06T12:42:39;18.20;99.90
13174;DHT22;6652;48.802;9.190;2023-08-06T12:45:16;18.30;99.90
13174;DHT22;6652;48.802;9.190;2023-08-06T12:47:46;18.50;99.90
13174;DHT22;6652;48.802;9.190;2023-08-06T12:50:16;18.70;99.90
13174;DHT22;6652;48.802;9.190;2023-08-06T12:52:46;18.80;99.90
13174;DHT22;6652;48.802;9.190;2023-08-06T12:55:14;19.10;99.90
13174;DHT22;6652;48.802;9.190;2023-08-06T12:57:42;19.50;99.90
13174;DHT22;6652;48.802;9.190;2023-08-06T13:00:10;19.70;99.90
13174;DHT22;6652;48.802;9.190;2023-08-06T13:02:41;19.90;99.90
13174;DHT22;6652;48.802;9.190;2023-08-06T13:05:09;19.80;99.90
13174;DHT22;6652;48.802;9.190;2023-08-06T13:07:43;19.60;99.90
13174;DHT22;6652;48.802;9.190;2023-08-06T13:10:12;19.50;99.90
13174;DHT22;6652;48.802;9.190;2023-08-06T13:12:45;19.50;99.90
13174;DHT22;6652;48.802;9.190;2023-08-06T13:15:12;19.60;99.90
13174;DHT22;6652;48.802;9.190;2023-08-06T13:17:40;19.70;99.90
13174;DHT22;6652;48.802;9.190;2023-08-06T13:20:10;19.80;99.90
13174;DHT22;6652;48.802;9.190;2023-08-06T13:22:42;19.70;99.90
13174;DHT22;6652;48.802;9.190;2023-08-06T13:25:12;19.80;99.90
13174;DHT22;6652;48.802;9.190;2023-08-06T13:27:46;19.70;99.90
13174;DHT22;6652;48.802;9.190;2023-08-06T13:30:23;19.60;99.90
13174;DHT22;6652;48.802;9.190;2023-08-06T13:32:58;19.80;99.90
13174;DHT22;6652;48.802;9.190;2023-08-06T13:35:32;20.10;99.90
13174;DHT22;6652;48.802;9.190;2023-08-06T13:38:00;20.20;99.90
13174;DHT22;6652;48.802;9.190;2023-08-06T13:40:28;20.20;99.90
13174;DHT22;6652;48.802;9.190;2023-08-06T13:42:55;19.90;99.90
13174;DHT22;6652;48.802;9.190;2023-08-06T13:45:22;19.90;99.90
13174;DHT22;6652;48.802;9.190;2023-08-06T13:47:49;19.80;99.90
13174;DHT22;6652;48.802;9.190;2023-08-06T13:50:16;19.90;99.90
13174;DHT22;6652;48.802;9.190;2023-08-06T13:52:43;20.00;99.90
13174;DHT22;6652;48.802;9.190;2023-08-06T13:55:11;19.70;99.90
13174;DHT22;6652;48.802;9.190;2023-08-06T13:57:38;19.80;99.90
13174;DHT22;6652;48.802;9.190;2023-08-06T14:00:06;19.70;99.90
13174;DHT22;6652;48.802;9.190;2023-08-06T14:02:33;19.70;99.90
13174;DHT22;6652;48.802;9.190;2023-08-06T14:04:59;19.70;99.90
13174;DHT22;6652;48.802;9.190;2023-08-06T14:07:26;19.60;99.90
13174;DHT22;6652;48.802;9.190;2023-08-06T14:09:53;19.50;99.90
13174;DHT22;6652;48.802;9.190;2023-08-06T14:12:21;19.30;99.90
13174;DHT22;6652;48.802;9.190;2023-08-06T14:14:48;19.20;99.90
13174;DHT22;6652;48.802;9.190;2023-08-06T14:17:15;18.80;99.90
13174;DHT22;6652;48.802;9.190;2023-08-06T14:19:42;18.60;99.90
13174;DHT22;6652;48.802;9.190;2023-08-06T14:22:09;18.60;99.90
13174;DHT22;6652;48.802;9.190;2023-08-06T14:24:35;18.80;99.90
13174;DHT22;6652;48.802;9.190;2023-08-06T14:27:02;18.70;99.90
13174;DHT22;6652;48.802;9.190;2023-08-06T14:29:31;18.90;99.90
13174;DHT22;6652;48.802;9.190;2023-08-06T14:31:57;18.90;99.90
13174;DHT22;6652;48.802;9.190;2023-08-06T14:34:24;19.00;99.90
13174;DHT22;6652;48.802;9.190;2023-08-06T14:36:51;19.00;99.90
13174;DHT22;6652;48.802;9.190;2023-08-06T14:39:18;19.20;99.90
13174;DHT22;6652;48.802;9.190;2023-08-06T14:41:44;19.30;99.90
13174;DHT22;6652;48.802;9.190;2023-08-06T14:44:11;19.20;99.90
13174;DHT22;6652;48.802;9.190;2023-08-06T14:46:39;19.20;99.90
13174;DHT22;6652;48.802;9.190;2023-08-06T14:49:06;19.10;99.90
13174;DHT22;6652;48.802;9.190;2023-08-06T14:51:33;19.30;99.90
13174;DHT22;6652;48.802;9.190;2023-08-06T14:54:00;18.90;99.90
13174;DHT22;6652;48.802;9.190;2023-08-06T14:56:27;18.80;99.90
13174;DHT22;6652;48.802;9.190;2023-08-06T14:58:53;18.50;99.90
13174;DHT22;6652;48.802;9.190;2023-08-06T15:01:20;18.40;99.90
13174;DHT22;6652;48.802;9.190;2023-08-06T15:03:48;18.30;99.90
13174;DHT22;6652;48.802;9.190;2023-08-06T15:06:15;18.30;99.90
13174;DHT22;6652;48.802;9.190;2023-08-06T15:08:42;18.10;99.90
13174;DHT22;6652;48.802;9.190;2023-08-06T15:11:13;18.10;99.90
13174;DHT22;6652;48.802;9.190;2023-08-06T15:13:40;17.90;99.90
13174;DHT22;6652;48.802;9.190;2023-08-06T15:16:07;18.10;99.90
13174;DHT22;6652;48.802;9.190;2023-08-06T15:18:34;18.10;99.90
13174;DHT22;6652;48.802;9.190;2023-08-06T15:21:02;18.40;99.90
13174;DHT22;6652;48.802;9.190;2023-08-06T15:23:29;18.40;99.90
13174;DHT22;6652;48.802;9.190;2023-08-06T15:25:56;18.50;99.90
13174;DHT22;6652;48.802;9.190;2023-08-06T15:28:23;18.60;99.90
13174;DHT22;6652;48.802;9.190;2023-08-06T15:30:50;18.60;99.90
13174;DHT22;6652;48.802;9.190;2023-08-06T15:33:18;18.80;99.90
13174;DHT22;6652;48.802;9.190;2023-08-06T15:35:45;18.80;99.90
13174;DHT22;6652;48.802;9.190;2023-08-06T15:38:13;18.80;99.90
13174;DHT22;6652;48.802;9.190;2023-08-06T15:40:40;18.70;99.90
13174;DHT22;6652;48.802;9.190;2023-08-06T15:43:07;18.50;99.90
13174;DHT22;6652;48.802;9.190;2023-08-06T15:45:33;18.50;99.90
13174;DHT22;6652;48.802;9.190;2023-08-06T15:48:00;18.40;99.90
13174;DHT22;6652;48.802;9.190;2023-08-06T15:50:27;18.40;99.90